Sitka, AK (99835)

2:48 AM AKST on February 11, 2016 (GMT -0900)
Sitka Rocky Gutierrez | | Change Station
CLOSE
Current Station
Airport
Location: Sitka,
Elevation: 20 ft
Nearby Weather Stations

Elev 20 ft 57.05 °N, 135.36 °W | Updated 55 minutes ago

Light Rain
Light Rain
44 °F
Feels Like 37 °F
N
16
Wind Variable Wind from ESE

Today
High -- | Low -- °F
--% Chance of Precip.
Yesterday
High -- | Low -- °F
Precip. -- in
Pressure 29.90 in
Visibility 10.0 miles
Clouds Mostly Cloudy 4200 ft
Overcast 4900 ft
Windchill 37 °F
Dew Point 40 °F
Humidity 85%
Rainfall 0.13 in
Snow Depth Not available.
7:39 AM 4:52 PM
Waxing Crescent, 11% visible
METAR PASI 111053Z 11014KT 10SM -RA BKN042 OVC049 07/04 A2990 RMK AO2 SLP123 P0010 T00670044
Pressure 29.90 in
Visibility 10.0 miles
Clouds Mostly Cloudy 4200 ft
Overcast 4900 ft
Windchill 37 °F
Dew Point 40 °F
Humidity 85%
Rainfall 0.13 in
Snow Depth Not available.
7:39 AM 4:52 PM
Waxing Crescent, 11% visible
METAR PASI 111053Z 11014KT 10SM -RA BKN042 OVC049 07/04 A2990 RMK AO2 SLP123 P0010 T00670044

10-Day Weather Forecast

Almanac

Astronomy

Feb. 11, 2016 Rise Set
Actual Time
Civil Twilight
Nautical Twilight
Astronomical Twilight
Moon
Length of Visible Light
Length of Day
Tomorrow will be .
, % of the Moon is Illuminated

Today's Extremes

State Highs State Lows

Community

WunderPhotos

Upload Photos

1,892,030 photos uploaded!

WunderBlog® & News

Nearby

Air Quality

  Air Quality AQ Index Pollutant
Not available.

Snow Depth

Station Depth Elevation

Earthquake Activity

City Distance Mag. Time & Date
Minimum magnitude displayed is 2.5.

Coastal Water Temperatures

Place Temperature

Stations

Nearby Weather Stations

Station Location Temp. Windchill Dew Point Humidity Wind Precip. Elev Updated Type
                   

Watches & Warnings

There are currently no watches in effect.